sensor_id;sensor_type;location;lat;lon;timestamp;P1;durP1;ratioP1;P2;durP2;ratioP2
78718;SDS011;68046;53.334;9.538;2024-03-23T00:54:26;12.00;;;2.30;;
78718;SDS011;68046;53.334;9.538;2024-03-23T00:56:51;14.10;;;2.53;;
78718;SDS011;68046;53.334;9.538;2024-03-23T00:59:17;14.35;;;2.72;;
78718;SDS011;68046;53.334;9.538;2024-03-23T01:01:42;10.10;;;2.92;;
78718;SDS011;68046;53.334;9.538;2024-03-23T01:04:08;9.45;;;2.80;;
78718;SDS011;68046;53.334;9.538;2024-03-23T01:06:33;10.20;;;2.83;;
78718;SDS011;68046;53.334;9.538;2024-03-23T01:08:59;19.88;;;3.15;;
78718;SDS011;68046;53.334;9.538;2024-03-23T01:11:26;19.02;;;3.60;;
78718;SDS011;68046;53.334;9.538;2024-03-23T01:13:53;19.10;;;3.85;;
78718;SDS011;68046;53.334;9.538;2024-03-23T01:16:18;14.93;;;2.75;;
78718;SDS011;68046;53.334;9.538;2024-03-23T01:18:44;12.25;;;3.20;;
78718;SDS011;68046;53.334;9.538;2024-03-23T01:21:09;22.70;;;3.10;;
78718;SDS011;68046;53.334;9.538;2024-03-23T01:23:35;10.25;;;3.47;;
78718;SDS011;68046;53.334;9.538;2024-03-23T01:26:00;9.35;;;2.17;;
78718;SDS011;68046;53.334;9.538;2024-03-23T01:28:27;22.55;;;3.03;;
78718;SDS011;68046;53.334;9.538;2024-03-23T01:30:53;16.70;;;3.70;;
78718;SDS011;68046;53.334;9.538;2024-03-23T01:33:18;11.57;;;2.47;;
78718;SDS011;68046;53.334;9.538;2024-03-23T01:35:44;16.83;;;3.72;;
78718;SDS011;68046;53.334;9.538;2024-03-23T01:38:09;9.73;;;2.92;;
78718;SDS011;68046;53.334;9.538;2024-03-23T01:40:34;9.82;;;2.05;;
78718;SDS011;68046;53.334;9.538;2024-03-23T01:43:02;11.65;;;3.55;;
78718;SDS011;68046;53.334;9.538;2024-03-23T01:45:31;20.30;;;3.22;;
78718;SDS011;68046;53.334;9.538;2024-03-23T01:47:56;10.20;;;2.33;;
78718;SDS011;68046;53.334;9.538;2024-03-23T01:50:22;13.57;;;2.40;;
78718;SDS011;68046;53.334;9.538;2024-03-23T01:52:48;9.20;;;2.40;;
78718;SDS011;68046;53.334;9.538;2024-03-23T01:55:14;12.20;;;2.20;;
78718;SDS011;68046;53.334;9.538;2024-03-23T01:57:39;5.28;;;2.03;;
78718;SDS011;68046;53.334;9.538;2024-03-23T02:00:05;7.72;;;3.15;;
78718;SDS011;68046;53.334;9.538;2024-03-23T02:02:41;9.73;;;2.92;;
78718;SDS011;68046;53.334;9.538;2024-03-23T02:05:07;13.10;;;2.30;;
78718;SDS011;68046;53.334;9.538;2024-03-23T02:07:33;9.43;;;2.17;;
78718;SDS011;68046;53.334;9.538;2024-03-23T02:09:58;10.65;;;2.80;;
78718;SDS011;68046;53.334;9.538;2024-03-23T02:12:24;6.35;;;2.08;;
78718;SDS011;68046;53.334;9.538;2024-03-23T02:14:49;12.30;;;2.63;;
78718;SDS011;68046;53.334;9.538;2024-03-23T02:17:15;8.15;;;2.38;;
78718;SDS011;68046;53.334;9.538;2024-03-23T02:19:42;11.68;;;2.60;;
78718;SDS011;68046;53.334;9.538;2024-03-23T02:22:07;7.10;;;2.53;;
78718;SDS011;68046;53.334;9.538;2024-03-23T02:24:34;13.13;;;2.55;;
78718;SDS011;68046;53.334;9.538;2024-03-23T02:27:00;11.57;;;3.47;;
78718;SDS011;68046;53.334;9.538;2024-03-23T02:29:27;10.10;;;2.28;;
78718;SDS011;68046;53.334;9.538;2024-03-23T02:31:52;4.88;;;1.83;;
78718;SDS011;68046;53.334;9.538;2024-03-23T02:34:18;11.10;;;2.10;;
78718;SDS011;68046;53.334;9.538;2024-03-23T02:36:43;14.68;;;2.75;;
78718;SDS011;68046;53.334;9.538;2024-03-23T02:39:09;17.27;;;2.83;;
78718;SDS011;68046;53.334;9.538;2024-03-23T02:41:36;9.55;;;2.00;;
78718;SDS011;68046;53.334;9.538;2024-03-23T02:44:02;16.02;;;3.28;;
78718;SDS011;68046;53.334;9.538;2024-03-23T02:46:27;8.95;;;2.22;;
78718;SDS011;68046;53.334;9.538;2024-03-23T02:48:53;15.75;;;2.80;;
78718;SDS011;68046;53.334;9.538;2024-03-23T02:51:18;14.18;;;2.67;;
78718;SDS011;68046;53.334;9.538;2024-03-23T02:53:44;12.60;;;2.70;;
78718;SDS011;68046;53.334;9.538;2024-03-23T02:56:09;10.93;;;2.38;;
78718;SDS011;68046;53.334;9.538;2024-03-23T02:58:36;12.18;;;3.10;;
78718;SDS011;68046;53.334;9.538;2024-03-23T03:01:01;12.98;;;2.80;;
78718;SDS011;68046;53.334;9.538;2024-03-23T03:03:27;19.55;;;3.80;;
78718;SDS011;68046;53.334;9.538;2024-03-23T03:05:54;19.42;;;3.42;;
78718;SDS011;68046;53.334;9.538;2024-03-23T03:08:20;16.27;;;2.88;;
78718;SDS011;68046;53.334;9.538;2024-03-23T03:10:46;13.68;;;3.05;;
78718;SDS011;68046;53.334;9.538;2024-03-23T03:13:11;13.23;;;3.33;;
78718;SDS011;68046;53.334;9.538;2024-03-23T03:15:38;13.57;;;3.33;;
78718;SDS011;68046;53.334;9.538;2024-03-23T03:18:05;10.50;;;3.08;;
78718;SDS011;68046;53.334;9.538;2024-03-23T03:20:30;15.88;;;3.20;;
78718;SDS011;68046;53.334;9.538;2024-03-23T03:22:56;19.10;;;3.80;;
78718;SDS011;68046;53.334;9.538;2024-03-23T03:25:21;10.02;;;3.08;;
78718;SDS011;68046;53.334;9.538;2024-03-23T03:27:47;18.25;;;2.75;;
78718;SDS011;68046;53.334;9.538;2024-03-23T03:30:12;7.82;;;2.47;;
78718;SDS011;68046;53.334;9.538;2024-03-23T03:32:39;13.82;;;2.53;;
78718;SDS011;68046;53.334;9.538;2024-03-23T03:35:05;24.00;;;3.17;;
78718;SDS011;68046;53.334;9.538;2024-03-23T03:37:31;8.55;;;1.92;;
78718;SDS011;68046;53.334;9.538;2024-03-23T03:39:56;8.90;;;2.10;;
78718;SDS011;68046;53.334;9.538;2024-03-23T03:42:22;12.13;;;2.33;;
78718;SDS011;68046;53.334;9.538;2024-03-23T03:44:47;14.13;;;3.55;;
78718;SDS011;68046;53.334;9.538;2024-03-23T03:47:13;6.80;;;2.22;;
78718;SDS011;68046;53.334;9.538;2024-03-23T03:49:40;13.45;;;2.88;;
78718;SDS011;68046;53.334;9.538;2024-03-23T03:52:05;12.45;;;3.15;;
78718;SDS011;68046;53.334;9.538;2024-03-23T03:54:31;10.63;;;2.45;;
78718;SDS011;68046;53.334;9.538;2024-03-23T03:56:56;10.52;;;2.75;;
78718;SDS011;68046;53.334;9.538;2024-03-23T03:59:22;10.98;;;2.50;;
78718;SDS011;68046;53.334;9.538;2024-03-23T04:01:47;9.55;;;2.67;;
78718;SDS011;68046;53.334;9.538;2024-03-23T04:04:13;12.35;;;2.50;;
78718;SDS011;68046;53.334;9.538;2024-03-23T04:06:39;7.75;;;2.33;;
78718;SDS011;68046;53.334;9.538;2024-03-23T04:09:05;14.00;;;3.25;;
78718;SDS011;68046;53.334;9.538;2024-03-23T04:11:30;10.80;;;2.53;;
78718;SDS011;68046;53.334;9.538;2024-03-23T04:13:56;10.60;;;2.85;;
78718;SDS011;68046;53.334;9.538;2024-03-23T04:16:25;17.52;;;3.20;;
78718;SDS011;68046;53.334;9.538;2024-03-23T04:18:52;15.93;;;3.50;;
78718;SDS011;68046;53.334;9.538;2024-03-23T04:21:17;12.05;;;2.08;;
78718;SDS011;68046;53.334;9.538;2024-03-23T04:23:44;10.05;;;2.70;;
78718;SDS011;68046;53.334;9.538;2024-03-23T04:26:09;13.98;;;2.55;;
78718;SDS011;68046;53.334;9.538;2024-03-23T04:28:35;13.30;;;2.90;;
78718;SDS011;68046;53.334;9.538;2024-03-23T04:31:03;14.32;;;2.55;;
78718;SDS011;68046;53.334;9.538;2024-03-23T04:33:28;12.50;;;3.25;;
78718;SDS011;68046;53.334;9.538;2024-03-23T04:35:54;11.60;;;2.60;;
78718;SDS011;68046;53.334;9.538;2024-03-23T04:38:19;15.68;;;4.18;;
78718;SDS011;68046;53.334;9.538;2024-03-23T04:40:47;12.23;;;3.03;;
78718;SDS011;68046;53.334;9.538;2024-03-23T04:43:19;12.55;;;2.35;;
78718;SDS011;68046;53.334;9.538;2024-03-23T04:45:44;10.00;;;2.53;;
78718;SDS011;68046;53.334;9.538;2024-03-23T04:48:10;12.68;;;3.00;;
78718;SDS011;68046;53.334;9.538;2024-03-23T04:50:37;8.70;;;2.05;;
78718;SDS011;68046;53.334;9.538;2024-03-23T04:53:03;13.48;;;2.42;;
78718;SDS011;68046;53.334;9.538;2024-03-23T04:55:29;15.30;;;3.13;;
78718;SDS011;68046;53.334;9.538;2024-03-23T04:57:56;15.95;;;3.63;;
78718;SDS011;68046;53.334;9.538;2024-03-23T05:00:21;12.20;;;2.65;;
78718;SDS011;68046;53.334;9.538;2024-03-23T05:02:47;14.38;;;3.13;;
78718;SDS011;68046;53.334;9.538;2024-03-23T05:05:12;20.80;;;3.78;;
78718;SDS011;68046;53.334;9.538;2024-03-23T05:07:38;17.10;;;4.32;;
78718;SDS011;68046;53.334;9.538;2024-03-23T05:10:04;19.40;;;3.00;;
78718;SDS011;68046;53.334;9.538;2024-03-23T05:12:30;12.43;;;2.92;;
78718;SDS011;68046;53.334;9.538;2024-03-23T05:14:56;16.00;;;2.90;;
78718;SDS011;68046;53.334;9.538;2024-03-23T05:17:22;13.80;;;3.38;;
78718;SDS011;68046;53.334;9.538;2024-03-23T05:19:48;14.07;;;3.00;;
78718;SDS011;68046;53.334;9.538;2024-03-23T05:22:13;13.05;;;2.90;;
78718;SDS011;68046;53.334;9.538;2024-03-23T05:24:38;16.05;;;3.03;;
78718;SDS011;68046;53.334;9.538;2024-03-23T05:27:04;10.75;;;3.10;;
78718;SDS011;68046;53.334;9.538;2024-03-23T05:29:30;9.00;;;2.42;;
78718;SDS011;68046;53.334;9.538;2024-03-23T05:31:56;9.70;;;2.47;;
78718;SDS011;68046;53.334;9.538;2024-03-23T05:34:22;13.50;;;2.67;;
78718;SDS011;68046;53.334;9.538;2024-03-23T05:36:47;14.27;;;3.30;;
78718;SDS011;68046;53.334;9.538;2024-03-23T05:39:13;15.13;;;3.47;;
78718;SDS011;68046;53.334;9.538;2024-03-23T05:41:38;10.63;;;2.35;;
78718;SDS011;68046;53.334;9.538;2024-03-23T05:44:04;18.27;;;4.25;;
78718;SDS011;68046;53.334;9.538;2024-03-23T05:46:29;13.50;;;2.42;;
78718;SDS011;68046;53.334;9.538;2024-03-23T05:48:57;20.10;;;3.75;;
78718;SDS011;68046;53.334;9.538;2024-03-23T05:51:27;12.35;;;3.78;;
78718;SDS011;68046;53.334;9.538;2024-03-23T05:53:52;17.38;;;2.75;;
78718;SDS011;68046;53.334;9.538;2024-03-23T05:56:19;18.65;;;3.10;;
78718;SDS011;68046;53.334;9.538;2024-03-23T05:58:45;16.60;;;3.20;;
78718;SDS011;68046;53.334;9.538;2024-03-23T06:01:10;18.60;;;3.22;;
78718;SDS011;68046;53.334;9.538;2024-03-23T06:03:36;12.95;;;2.97;;
78718;SDS011;68046;53.334;9.538;2024-03-23T06:06:03;10.93;;;2.97;;
78718;SDS011;68046;53.334;9.538;2024-03-23T06:08:29;14.52;;;3.38;;
78718;SDS011;68046;53.334;9.538;2024-03-23T06:10:54;12.60;;;3.28;;
78718;SDS011;68046;53.334;9.538;2024-03-23T06:13:20;7.15;;;3.13;;
78718;SDS011;68046;53.334;9.538;2024-03-23T06:15:45;13.65;;;3.22;;
78718;SDS011;68046;53.334;9.538;2024-03-23T06:18:11;16.10;;;2.63;;
78718;SDS011;68046;53.334;9.538;2024-03-23T06:20:36;13.75;;;2.92;;
78718;SDS011;68046;53.334;9.538;2024-03-23T06:23:03;17.80;;;3.50;;
78718;SDS011;68046;53.334;9.538;2024-03-23T06:25:29;15.07;;;3.28;;
78718;SDS011;68046;53.334;9.538;2024-03-23T06:27:54;8.75;;;3.40;;
78718;SDS011;68046;53.334;9.538;2024-03-23T06:30:20;16.17;;;3.67;;
78718;SDS011;68046;53.334;9.538;2024-03-23T06:32:45;14.10;;;3.90;;
78718;SDS011;68046;53.334;9.538;2024-03-23T06:35:11;9.88;;;3.45;;
78718;SDS011;68046;53.334;9.538;2024-03-23T06:37:36;14.88;;;3.50;;
78718;SDS011;68046;53.334;9.538;2024-03-23T06:40:04;14.07;;;3.55;;
78718;SDS011;68046;53.334;9.538;2024-03-23T06:42:30;9.65;;;3.10;;
78718;SDS011;68046;53.334;9.538;2024-03-23T06:44:56;16.58;;;3.22;;
78718;SDS011;68046;53.334;9.538;2024-03-23T06:47:21;12.20;;;4.05;;
78718;SDS011;68046;53.334;9.538;2024-03-23T06:49:47;15.13;;;4.07;;
78718;SDS011;68046;53.334;9.538;2024-03-23T06:52:12;11.65;;;3.55;;
78718;SDS011;68046;53.334;9.538;2024-03-23T06:54:38;16.67;;;3.72;;
78718;SDS011;68046;53.334;9.538;2024-03-23T06:57:05;22.55;;;3.58;;
78718;SDS011;68046;53.334;9.538;2024-03-23T06:59:30;16.40;;;4.13;;
78718;SDS011;68046;53.334;9.538;2024-03-23T07:01:56;12.32;;;3.88;;
78718;SDS011;68046;53.334;9.538;2024-03-23T07:04:21;16.23;;;4.22;;
78718;SDS011;68046;53.334;9.538;2024-03-23T07:06:47;10.48;;;2.83;;
78718;SDS011;68046;53.334;9.538;2024-03-23T07:09:12;14.40;;;3.50;;
78718;SDS011;68046;53.334;9.538;2024-03-23T07:11:38;11.40;;;4.05;;
78718;SDS011;68046;53.334;9.538;2024-03-23T07:14:05;20.13;;;4.03;;
78718;SDS011;68046;53.334;9.538;2024-03-23T07:16:30;14.38;;;4.43;;
78718;SDS011;68046;53.334;9.538;2024-03-23T07:18:56;15.35;;;4.18;;
78718;SDS011;68046;53.334;9.538;2024-03-23T07:21:21;13.30;;;3.92;;
78718;SDS011;68046;53.334;9.538;2024-03-23T07:23:47;24.48;;;3.90;;
78718;SDS011;68046;53.334;9.538;2024-03-23T07:26:12;13.10;;;3.13;;
78718;SDS011;68046;53.334;9.538;2024-03-23T07:28:38;15.77;;;3.28;;
78718;SDS011;68046;53.334;9.538;2024-03-23T07:31:05;16.00;;;3.28;;
78718;SDS011;68046;53.334;9.538;2024-03-23T07:33:32;18.67;;;3.95;;
78718;SDS011;68046;53.334;9.538;2024-03-23T07:35:58;11.90;;;3.42;;
78718;SDS011;68046;53.334;9.538;2024-03-23T07:38:23;12.02;;;4.03;;
78718;SDS011;68046;53.334;9.538;2024-03-23T07:40:49;15.10;;;3.30;;
78718;SDS011;68046;53.334;9.538;2024-03-23T07:43:14;14.18;;;3.45;;
78718;SDS011;68046;53.334;9.538;2024-03-23T07:45:40;17.88;;;3.70;;
78718;SDS011;68046;53.334;9.538;2024-03-23T07:48:07;11.80;;;3.53;;
78718;SDS011;68046;53.334;9.538;2024-03-23T07:50:32;7.82;;;3.10;;
78718;SDS011;68046;53.334;9.538;2024-03-23T07:52:58;17.95;;;3.78;;
78718;SDS011;68046;53.334;9.538;2024-03-23T07:55:23;17.13;;;3.17;;
78718;SDS011;68046;53.334;9.538;2024-03-23T07:57:50;11.88;;;3.20;;
78718;SDS011;68046;53.334;9.538;2024-03-23T08:00:16;18.17;;;3.22;;
78718;SDS011;68046;53.334;9.538;2024-03-23T08:02:42;14.43;;;3.15;;
78718;SDS011;68046;53.334;9.538;2024-03-23T08:05:09;17.60;;;3.55;;
78718;SDS011;68046;53.334;9.538;2024-03-23T08:07:34;13.82;;;3.25;;
78718;SDS011;68046;53.334;9.538;2024-03-23T08:10:00;11.55;;;2.63;;
78718;SDS011;68046;53.334;9.538;2024-03-23T08:12:25;20.85;;;3.60;;
78718;SDS011;68046;53.334;9.538;2024-03-23T08:14:51;19.52;;;3.15;;
78718;SDS011;68046;53.334;9.538;2024-03-23T08:17:16;10.13;;;3.20;;
78718;SDS011;68046;53.334;9.538;2024-03-23T08:19:42;20.70;;;3.97;;
78718;SDS011;68046;53.334;9.538;2024-03-23T08:22:09;13.85;;;2.67;;
78718;SDS011;68046;53.334;9.538;2024-03-23T08:24:34;7.93;;;2.88;;
78718;SDS011;68046;53.334;9.538;2024-03-23T08:27:00;13.82;;;4.22;;
78718;SDS011;68046;53.334;9.538;2024-03-23T08:29:25;12.38;;;3.17;;
78718;SDS011;68046;53.334;9.538;2024-03-23T08:31:51;10.40;;;2.25;;
78718;SDS011;68046;53.334;9.538;2024-03-23T08:34:16;16.00;;;2.83;;
78718;SDS011;68046;53.334;9.538;2024-03-23T08:36:42;7.50;;;2.70;;
78718;SDS011;68046;53.334;9.538;2024-03-23T08:39:09;10.20;;;3.15;;
78718;SDS011;68046;53.334;9.538;2024-03-23T08:41:34;13.68;;;2.70;;
78718;SDS011;68046;53.334;9.538;2024-03-23T08:44:00;12.93;;;3.83;;
78718;SDS011;68046;53.334;9.538;2024-03-23T08:46:26;12.57;;;2.75;;
78718;SDS011;68046;53.334;9.538;2024-03-23T08:48:51;14.80;;;3.33;;
78718;SDS011;68046;53.334;9.538;2024-03-23T08:51:16;9.35;;;2.55;;
78718;SDS011;68046;53.334;9.538;2024-03-23T08:53:42;18.17;;;3.20;;
78718;SDS011;68046;53.334;9.538;2024-03-23T08:56:09;12.48;;;2.90;;
78718;SDS011;68046;53.334;9.538;2024-03-23T08:58:36;8.45;;;2.67;;
78718;SDS011;68046;53.334;9.538;2024-03-23T09:01:03;20.85;;;3.58;;
78718;SDS011;68046;53.334;9.538;2024-03-23T09:03:30;14.10;;;2.75;;
78718;SDS011;68046;53.334;9.538;2024-03-23T09:05:55;10.45;;;3.33;;
78718;SDS011;68046;53.334;9.538;2024-03-23T09:08:21;18.60;;;3.42;;
78718;SDS011;68046;53.334;9.538;2024-03-23T09:10:47;11.35;;;3.17;;
78718;SDS011;68046;53.334;9.538;2024-03-23T09:13:14;19.52;;;4.70;;
78718;SDS011;68046;53.334;9.538;2024-03-23T09:15:45;14.43;;;3.60;;
78718;SDS011;68046;53.334;9.538;2024-03-23T09:18:12;11.65;;;3.13;;
78718;SDS011;68046;53.334;9.538;2024-03-23T09:20:37;13.68;;;2.78;;
78718;SDS011;68046;53.334;9.538;2024-03-23T09:23:03;16.77;;;3.05;;
78718;SDS011;68046;53.334;9.538;2024-03-23T09:25:28;26.40;;;3.05;;
78718;SDS011;68046;53.334;9.538;2024-03-23T09:27:54;10.68;;;2.80;;
78718;SDS011;68046;53.334;9.538;2024-03-23T09:30:21;13.52;;;2.80;;
78718;SDS011;68046;53.334;9.538;2024-03-23T09:32:46;10.38;;;2.65;;
78718;SDS011;68046;53.334;9.538;2024-03-23T09:35:12;9.07;;;3.30;;
78718;SDS011;68046;53.334;9.538;2024-03-23T09:37:38;11.52;;;3.40;;
78718;SDS011;68046;53.334;9.538;2024-03-23T09:40:04;7.13;;;2.50;;
78718;SDS011;68046;53.334;9.538;2024-03-23T09:42:30;12.40;;;2.67;;
78718;SDS011;68046;53.334;9.538;2024-03-23T09:44:56;8.05;;;1.98;;
78718;SDS011;68046;53.334;9.538;2024-03-23T09:47:24;12.52;;;2.45;;
78718;SDS011;68046;53.334;9.538;2024-03-23T09:49:49;5.57;;;2.10;;
78718;SDS011;68046;53.334;9.538;2024-03-23T09:52:15;12.68;;;2.58;;
78718;SDS011;68046;53.334;9.538;2024-03-23T09:54:40;15.60;;;4.68;;
78718;SDS011;68046;53.334;9.538;2024-03-23T09:57:06;7.75;;;2.58;;
78718;SDS011;68046;53.334;9.538;2024-03-23T09:59:33;6.43;;;2.08;;
78718;SDS011;68046;53.334;9.538;2024-03-23T10:01:58;13.80;;;2.65;;
78718;SDS011;68046;53.334;9.538;2024-03-23T10:04:38;12.02;;;2.30;;
78718;SDS011;68046;53.334;9.538;2024-03-23T10:07:10;14.35;;;2.50;;
78718;SDS011;68046;53.334;9.538;2024-03-23T10:09:36;4.03;;;2.08;;
78718;SDS011;68046;53.334;9.538;2024-03-23T10:12:07;10.18;;;1.83;;
78718;SDS011;68046;53.334;9.538;2024-03-23T10:14:34;8.40;;;2.33;;
78718;SDS011;68046;53.334;9.538;2024-03-23T10:17:08;11.00;;;2.10;;
78718;SDS011;68046;53.334;9.538;2024-03-23T10:19:38;7.35;;;2.63;;
78718;SDS011;68046;53.334;9.538;2024-03-23T10:22:04;4.47;;;1.77;;
78718;SDS011;68046;53.334;9.538;2024-03-23T10:24:29;11.80;;;2.53;;
78718;SDS011;68046;53.334;9.538;2024-03-23T10:26:55;6.53;;;2.03;;
78718;SDS011;68046;53.334;9.538;2024-03-23T10:29:21;8.38;;;2.55;;
78718;SDS011;68046;53.334;9.538;2024-03-23T10:31:46;10.02;;;2.33;;
78718;SDS011;68046;53.334;9.538;2024-03-23T10:34:12;7.93;;;1.77;;
78718;SDS011;68046;53.334;9.538;2024-03-23T10:36:39;8.90;;;2.40;;
78718;SDS011;68046;53.334;9.538;2024-03-23T10:39:05;5.53;;;1.95;;
78718;SDS011;68046;53.334;9.538;2024-03-23T10:41:32;15.50;;;2.80;;
78718;SDS011;68046;53.334;9.538;2024-03-23T10:43:58;13.80;;;2.45;;
78718;SDS011;68046;53.334;9.538;2024-03-23T10:46:24;9.93;;;2.28;;
78718;SDS011;68046;53.334;9.538;2024-03-23T10:48:50;9.93;;;2.30;;
78718;SDS011;68046;53.334;9.538;2024-03-23T10:51:15;8.50;;;2.40;;
78718;SDS011;68046;53.334;9.538;2024-03-23T10:53:42;12.10;;;1.65;;
78718;SDS011;68046;53.334;9.538;2024-03-23T10:56:10;5.97;;;1.50;;
78718;SDS011;68046;53.334;9.538;2024-03-23T10:58:38;11.55;;;2.92;;
78718;SDS011;68046;53.334;9.538;2024-03-23T11:01:05;7.53;;;1.27;;
78718;SDS011;68046;53.334;9.538;2024-03-23T11:03:31;4.43;;;1.45;;
78718;SDS011;68046;53.334;9.538;2024-03-23T11:05:58;7.95;;;2.05;;
78718;SDS011;68046;53.334;9.538;2024-03-23T11:08:34;10.15;;;1.65;;
78718;SDS011;68046;53.334;9.538;2024-03-23T11:11:18;10.45;;;1.70;;
78718;SDS011;68046;53.334;9.538;2024-03-23T11:13:44;10.30;;;2.47;;
78718;SDS011;68046;53.334;9.538;2024-03-23T11:16:13;9.18;;;1.85;;
78718;SDS011;68046;53.334;9.538;2024-03-23T11:18:39;7.68;;;2.20;;
78718;SDS011;68046;53.334;9.538;2024-03-23T11:21:06;13.73;;;2.80;;
78718;SDS011;68046;53.334;9.538;2024-03-23T11:23:31;9.68;;;2.38;;
78718;SDS011;68046;53.334;9.538;2024-03-23T11:25:57;6.97;;;2.33;;
78718;SDS011;68046;53.334;9.538;2024-03-23T11:28:24;10.43;;;1.88;;
78718;SDS011;68046;53.334;9.538;2024-03-23T11:30:49;13.45;;;2.42;;
78718;SDS011;68046;53.334;9.538;2024-03-23T11:33:15;9.23;;;1.75;;
78718;SDS011;68046;53.334;9.538;2024-03-23T11:35:40;11.38;;;1.88;;
78718;SDS011;68046;53.334;9.538;2024-03-23T11:38:06;8.18;;;1.95;;
78718;SDS011;68046;53.334;9.538;2024-03-23T11:40:33;7.63;;;2.25;;
78718;SDS011;68046;53.334;9.538;2024-03-23T11:42:59;7.30;;;2.17;;
78718;SDS011;68046;53.334;9.538;2024-03-23T11:45:27;6.63;;;1.90;;
78718;SDS011;68046;53.334;9.538;2024-03-23T11:48:03;6.75;;;2.10;;
78718;SDS011;68046;53.334;9.538;2024-03-23T11:50:30;13.77;;;2.17;;
78718;SDS011;68046;53.334;9.538;2024-03-23T11:53:06;7.63;;;1.85;;
78718;SDS011;68046;53.334;9.538;2024-03-23T11:55:41;4.00;;;1.80;;
78718;SDS011;68046;53.334;9.538;2024-03-23T11:58:07;7.72;;;1.95;;
78718;SDS011;68046;53.334;9.538;2024-03-23T12:00:34;6.05;;;2.30;;
78718;SDS011;68046;53.334;9.538;2024-03-23T12:03:00;8.13;;;2.30;;
78718;SDS011;68046;53.334;9.538;2024-03-23T12:05:26;5.90;;;1.83;;
78718;SDS011;68046;53.334;9.538;2024-03-23T12:07:51;7.25;;;2.60;;
78718;SDS011;68046;53.334;9.538;2024-03-23T12:10:18;6.50;;;1.98;;
78718;SDS011;68046;53.334;9.538;2024-03-23T12:12:44;9.30;;;2.35;;
78718;SDS011;68046;53.334;9.538;2024-03-23T12:15:10;4.82;;;2.30;;
78718;SDS011;68046;53.334;9.538;2024-03-23T12:17:37;5.15;;;2.42;;
78718;SDS011;68046;53.334;9.538;2024-03-23T12:20:03;2.45;;;1.13;;
78718;SDS011;68046;53.334;9.538;2024-03-23T12:22:29;1.17;;;0.65;;
78718;SDS011;68046;53.334;9.538;2024-03-23T12:24:55;2.10;;;0.52;;
78718;SDS011;68046;53.334;9.538;2024-03-23T12:27:21;1.85;;;0.60;;
78718;SDS011;68046;53.334;9.538;2024-03-23T12:29:47;1.42;;;0.80;;
78718;SDS011;68046;53.334;9.538;2024-03-23T12:32:13;1.77;;;0.73;;
78718;SDS011;68046;53.334;9.538;2024-03-23T12:34:40;2.97;;;0.90;;
78718;SDS011;68046;53.334;9.538;2024-03-23T12:37:06;3.95;;;1.55;;
78718;SDS011;68046;53.334;9.538;2024-03-23T12:39:31;4.82;;;1.10;;
78718;SDS011;68046;53.334;9.538;2024-03-23T12:41:57;1.80;;;0.95;;
78718;SDS011;68046;53.334;9.538;2024-03-23T12:44:22;2.75;;;1.30;;
78718;SDS011;68046;53.334;9.538;2024-03-23T12:46:48;3.95;;;1.60;;
78718;SDS011;68046;53.334;9.538;2024-03-23T12:49:13;4.95;;;1.65;;
78718;SDS011;68046;53.334;9.538;2024-03-23T12:51:40;3.95;;;1.88;;
78718;SDS011;68046;53.334;9.538;2024-03-23T12:54:13;3.05;;;0.90;;
78718;SDS011;68046;53.334;9.538;2024-03-23T12:56:38;4.40;;;1.13;;
78718;SDS011;68046;53.334;9.538;2024-03-23T12:59:04;3.67;;;1.15;;
78718;SDS011;68046;53.334;9.538;2024-03-23T13:01:29;6.03;;;1.10;;
78718;SDS011;68046;53.334;9.538;2024-03-23T13:03:55;4.55;;;0.95;;
78718;SDS011;68046;53.334;9.538;2024-03-23T13:06:20;1.85;;;0.85;;
78718;SDS011;68046;53.334;9.538;2024-03-23T13:08:47;0.70;;;0.70;;
78718;SDS011;68046;53.334;9.538;2024-03-23T13:11:13;2.10;;;0.90;;
78718;SDS011;68046;53.334;9.538;2024-03-23T13:13:38;2.13;;;0.65;;
78718;SDS011;68046;53.334;9.538;2024-03-23T13:16:04;5.22;;;1.65;;
78718;SDS011;68046;53.334;9.538;2024-03-23T13:18:31;3.08;;;1.00;;
78718;SDS011;68046;53.334;9.538;2024-03-23T13:20:57;3.17;;;0.80;;
78718;SDS011;68046;53.334;9.538;2024-03-23T13:23:22;1.90;;;0.75;;
78718;SDS011;68046;53.334;9.538;2024-03-23T13:25:52;1.52;;;0.65;;
78718;SDS011;68046;53.334;9.538;2024-03-23T13:28:18;0.93;;;0.65;;
78718;SDS011;68046;53.334;9.538;2024-03-23T13:30:49;0.98;;;0.68;;
78718;SDS011;68046;53.334;9.538;2024-03-23T13:33:15;1.67;;;0.45;;
78718;SDS011;68046;53.334;9.538;2024-03-23T13:35:45;2.55;;;1.15;;
78718;SDS011;68046;53.334;9.538;2024-03-23T13:38:14;1.45;;;0.85;;
78718;SDS011;68046;53.334;9.538;2024-03-23T13:40:39;1.45;;;0.60;;
78718;SDS011;68046;53.334;9.538;2024-03-23T13:43:16;1.30;;;0.60;;
78718;SDS011;68046;53.334;9.538;2024-03-23T13:45:41;0.65;;;0.60;;
78718;SDS011;68046;53.334;9.538;2024-03-23T13:48:07;2.42;;;0.90;;
78718;SDS011;68046;53.334;9.538;2024-03-23T13:50:32;3.45;;;1.05;;
78718;SDS011;68046;53.334;9.538;2024-03-23T13:52:58;4.22;;;1.20;;
78718;SDS011;68046;53.334;9.538;2024-03-23T13:55:23;2.75;;;0.82;;
78718;SDS011;68046;53.334;9.538;2024-03-23T13:57:49;1.45;;;0.82;;
78718;SDS011;68046;53.334;9.538;2024-03-23T14:00:16;6.53;;;1.58;;
78718;SDS011;68046;53.334;9.538;2024-03-23T14:02:42;3.88;;;0.75;;
78718;SDS011;68046;53.334;9.538;2024-03-23T14:05:07;8.38;;;1.30;;
78718;SDS011;68046;53.334;9.538;2024-03-23T14:07:33;3.05;;;1.30;;
78718;SDS011;68046;53.334;9.538;2024-03-23T14:10:02;9.15;;;1.55;;
78718;SDS011;68046;53.334;9.538;2024-03-23T14:12:27;4.93;;;1.20;;
78718;SDS011;68046;53.334;9.538;2024-03-23T14:14:53;9.95;;;1.95;;
78718;SDS011;68046;53.334;9.538;2024-03-23T14:17:20;4.13;;;1.38;;
78718;SDS011;68046;53.334;9.538;2024-03-23T14:19:45;9.70;;;1.48;;
78718;SDS011;68046;53.334;9.538;2024-03-23T14:22:11;5.07;;;1.33;;
78718;SDS011;68046;53.334;9.538;2024-03-23T14:24:36;4.60;;;1.40;;
78718;SDS011;68046;53.334;9.538;2024-03-23T14:27:02;2.22;;;1.10;;
78718;SDS011;68046;53.334;9.538;2024-03-23T14:29:27;7.95;;;1.30;;
78718;SDS011;68046;53.334;9.538;2024-03-23T14:31:53;3.65;;;1.50;;
78718;SDS011;68046;53.334;9.538;2024-03-23T14:34:20;1.77;;;1.15;;
78718;SDS011;68046;53.334;9.538;2024-03-23T14:36:45;4.03;;;1.30;;
78718;SDS011;68046;53.334;9.538;2024-03-23T14:39:11;3.63;;;0.95;;
78718;SDS011;68046;53.334;9.538;2024-03-23T14:41:36;4.43;;;1.13;;
78718;SDS011;68046;53.334;9.538;2024-03-23T14:44:02;4.40;;;1.30;;
78718;SDS011;68046;53.334;9.538;2024-03-23T14:46:27;1.50;;;1.05;;
78718;SDS011;68046;53.334;9.538;2024-03-23T14:48:53;5.15;;;1.15;;
78718;SDS011;68046;53.334;9.538;2024-03-23T14:51:19;0.85;;;0.85;;
78718;SDS011;68046;53.334;9.538;2024-03-23T14:53:45;6.07;;;1.23;;
78718;SDS011;68046;53.334;9.538;2024-03-23T14:56:11;1.88;;;1.08;;
78718;SDS011;68046;53.334;9.538;2024-03-23T14:58:36;28.27;;;2.50;;
78718;SDS011;68046;53.334;9.538;2024-03-23T15:01:02;4.13;;;1.00;;
78718;SDS011;68046;53.334;9.538;2024-03-23T15:03:28;3.85;;;0.90;;
78718;SDS011;68046;53.334;9.538;2024-03-23T15:05:54;2.05;;;1.20;;
78718;SDS011;68046;53.334;9.538;2024-03-23T15:08:21;1.88;;;1.13;;
78718;SDS011;68046;53.334;9.538;2024-03-23T15:10:47;2.67;;;1.20;;
78718;SDS011;68046;53.334;9.538;2024-03-23T15:13:13;2.53;;;1.10;;
78718;SDS011;68046;53.334;9.538;2024-03-23T15:15:39;4.93;;;1.15;;
78718;SDS011;68046;53.334;9.538;2024-03-23T15:18:04;5.22;;;1.30;;
78718;SDS011;68046;53.334;9.538;2024-03-23T15:20:30;8.05;;;1.73;;
78718;SDS011;68046;53.334;9.538;2024-03-23T15:22:56;4.53;;;1.27;;
78718;SDS011;68046;53.334;9.538;2024-03-23T15:25:22;3.85;;;1.33;;
78718;SDS011;68046;53.334;9.538;2024-03-23T15:27:48;6.13;;;1.30;;